sensor_id;sensor_type;location;lat;lon;timestamp;pressure;altitude;pressure_sealevel;temperature;humidity
75629;BME280;64213;46.452;16.994;2023-06-26T00:00:09;99852.94;;;17.36;90.73
75629;BME280;64213;46.452;16.994;2023-06-26T00:03:13;99847.87;;;17.33;90.84
75629;BME280;64213;46.452;16.994;2023-06-26T00:06:17;99850.84;;;17.30;91.28
75629;BME280;64213;46.452;16.994;2023-06-26T00:09:19;99842.41;;;17.25;91.14
75629;BME280;64213;46.452;16.994;2023-06-26T00:12:21;99848.75;;;17.24;91.32
75629;BME280;64213;46.452;16.994;2023-06-26T00:15:23;99855.53;;;17.18;91.53
75629;BME280;64213;46.452;16.994;2023-06-26T00:18:25;99848.37;;;17.09;92.34
75629;BME280;64213;46.452;16.994;2023-06-26T00:21:28;99847.81;;;17.05;91.61
75629;BME280;64213;46.452;16.994;2023-06-26T00:24:30;99840.37;;;16.99;92.28
75629;BME280;64213;46.452;16.994;2023-06-26T00:27:32;99839.81;;;16.95;92.01
75629;BME280;64213;46.452;16.994;2023-06-26T00:30:34;99840.41;;;16.89;92.32
75629;BME280;64213;46.452;16.994;2023-06-26T00:33:37;99837.75;;;16.80;93.41
75629;BME280;64213;46.452;16.994;2023-06-26T00:36:39;99844.62;;;16.72;93.12
75629;BME280;64213;46.452;16.994;2023-06-26T00:39:45;99841.69;;;16.56;94.11
75629;BME280;64213;46.452;16.994;2023-06-26T00:42:47;99837.19;;;16.47;94.09
75629;BME280;64213;46.452;16.994;2023-06-26T00:45:49;99832.97;;;16.44;94.79
75629;BME280;64213;46.452;16.994;2023-06-26T00:48:52;99843.66;;;16.44;94.78
75629;BME280;64213;46.452;16.994;2023-06-26T00:51:54;99830.41;;;16.52;93.93
75629;BME280;64213;46.452;16.994;2023-06-26T00:54:58;99835.91;;;16.51;93.74
75629;BME280;64213;46.452;16.994;2023-06-26T00:58:00;99829.88;;;16.39;93.83
75629;BME280;64213;46.452;16.994;2023-06-26T01:01:02;99831.97;;;16.26;93.95
75629;BME280;64213;46.452;16.994;2023-06-26T01:04:05;99834.66;;;16.26;93.63
75629;BME280;64213;46.452;16.994;2023-06-26T01:07:07;99830.84;;;16.19;93.44
75629;BME280;64213;46.452;16.994;2023-06-26T01:10:10;99826.91;;;16.23;92.99
75629;BME280;64213;46.452;16.994;2023-06-26T01:13:13;99828.19;;;16.19;92.71
75629;BME280;64213;46.452;16.994;2023-06-26T01:16:16;99824.09;;;15.95;93.20
75629;BME280;64213;46.452;16.994;2023-06-26T01:19:27;99836.19;;;15.99;92.98
75629;BME280;64213;46.452;16.994;2023-06-26T01:29:09;99820.13;;;15.70;93.49
75629;BME280;64213;46.452;16.994;2023-06-26T01:32:12;99817.81;;;15.66;93.69
75629;BME280;64213;46.452;16.994;2023-06-26T01:35:15;99813.31;;;15.66;93.40
75629;BME280;64213;46.452;16.994;2023-06-26T01:38:19;99812.47;;;15.66;93.43
75629;BME280;64213;46.452;16.994;2023-06-26T01:41:22;99817.56;;;15.69;93.45
75629;BME280;64213;46.452;16.994;2023-06-26T01:44:34;99817.59;;;15.78;93.26
75629;BME280;64213;46.452;16.994;2023-06-26T01:47:38;99827.03;;;15.83;92.95
75629;BME280;64213;46.452;16.994;2023-06-26T01:50:44;99814.53;;;15.83;92.90
75629;BME280;64213;46.452;16.994;2023-06-26T01:53:48;99815.47;;;15.72;93.29
75629;BME280;64213;46.452;16.994;2023-06-26T01:56:53;99815.63;;;15.71;93.22
75629;BME280;64213;46.452;16.994;2023-06-26T01:59:56;99808.25;;;15.63;93.62
75629;BME280;64213;46.452;16.994;2023-06-26T02:03:00;99808.78;;;15.57;93.50
75629;BME280;64213;46.452;16.994;2023-06-26T02:06:03;99805.81;;;15.50;94.31
75629;BME280;64213;46.452;16.994;2023-06-26T02:09:05;99807.09;;;15.46;94.94
75629;BME280;64213;46.452;16.994;2023-06-26T02:12:07;99812.69;;;15.43;94.89
75629;BME280;64213;46.452;16.994;2023-06-26T02:15:09;99808.16;;;15.34;95.72
75629;BME280;64213;46.452;16.994;2023-06-26T02:18:12;99801.56;;;15.28;95.36
75629;BME280;64213;46.452;16.994;2023-06-26T02:21:14;99803.91;;;15.22;96.23
75629;BME280;64213;46.452;16.994;2023-06-26T02:24:16;99805.31;;;15.16;96.60
75629;BME280;64213;46.452;16.994;2023-06-26T02:27:18;99803.84;;;15.12;96.52
75629;BME280;64213;46.452;16.994;2023-06-26T02:30:20;99808.63;;;15.08;96.68
75629;BME280;64213;46.452;16.994;2023-06-26T02:33:22;99815.66;;;15.09;96.23
75629;BME280;64213;46.452;16.994;2023-06-26T02:36:25;99807.50;;;15.11;96.47
75629;BME280;64213;46.452;16.994;2023-06-26T02:39:27;99806.66;;;15.10;96.23
75629;BME280;64213;46.452;16.994;2023-06-26T02:42:30;99816.06;;;15.15;95.89
75629;BME280;64213;46.452;16.994;2023-06-26T02:45:32;99818.75;;;15.15;95.72
75629;BME280;64213;46.452;16.994;2023-06-26T02:48:35;99816.50;;;15.10;95.78
75629;BME280;64213;46.452;16.994;2023-06-26T02:51:37;99817.59;;;15.07;95.93
75629;BME280;64213;46.452;16.994;2023-06-26T02:54:39;99815.19;;;15.04;95.98
75629;BME280;64213;46.452;16.994;2023-06-26T03:00:52;99809.44;;;15.09;95.92
75629;BME280;64213;46.452;16.994;2023-06-26T03:03:55;99811.28;;;15.08;95.44
75629;BME280;64213;46.452;16.994;2023-06-26T03:06:57;99818.06;;;15.13;95.38
75629;BME280;64213;46.452;16.994;2023-06-26T03:10:00;99811.00;;;15.11;95.37
75629;BME280;64213;46.452;16.994;2023-06-26T03:13:02;99805.00;;;15.09;95.23
75629;BME280;64213;46.452;16.994;2023-06-26T03:16:04;99810.00;;;15.03;95.47
75629;BME280;64213;46.452;16.994;2023-06-26T03:19:07;99806.75;;;14.99;95.65
75629;BME280;64213;46.452;16.994;2023-06-26T03:22:09;99817.72;;;15.06;95.68
75629;BME280;64213;46.452;16.994;2023-06-26T03:25:11;99819.00;;;15.11;95.56
75629;BME280;64213;46.452;16.994;2023-06-26T03:28:13;99816.78;;;15.17;95.37
75629;BME280;64213;46.452;16.994;2023-06-26T03:31:15;99821.44;;;15.24;94.87
75629;BME280;64213;46.452;16.994;2023-06-26T03:34:18;99816.66;;;15.18;95.20
75629;BME280;64213;46.452;16.994;2023-06-26T03:37:20;99831.69;;;15.19;95.11
75629;BME280;64213;46.452;16.994;2023-06-26T03:40:22;99824.06;;;15.15;95.34
75629;BME280;64213;46.452;16.994;2023-06-26T03:43:25;99829.94;;;15.08;95.50
75629;BME280;64213;46.452;16.994;2023-06-26T03:46:28;99827.66;;;15.04;95.75
75629;BME280;64213;46.452;16.994;2023-06-26T03:49:30;99833.63;;;14.96;96.57
75629;BME280;64213;46.452;16.994;2023-06-26T03:52:32;99841.78;;;14.95;96.39
75629;BME280;64213;46.452;16.994;2023-06-26T03:55:35;99839.94;;;14.95;96.77
75629;BME280;64213;46.452;16.994;2023-06-26T03:58:38;99840.16;;;15.03;96.50
75629;BME280;64213;46.452;16.994;2023-06-26T04:01:40;99833.16;;;15.12;96.01
75629;BME280;64213;46.452;16.994;2023-06-26T04:04:42;99833.63;;;15.17;95.84
75629;BME280;64213;46.452;16.994;2023-06-26T04:07:45;99839.53;;;15.21;95.93
75629;BME280;64213;46.452;16.994;2023-06-26T04:10:47;99840.81;;;15.26;95.52
75629;BME280;64213;46.452;16.994;2023-06-26T04:13:49;99845.47;;;15.34;95.46
75629;BME280;64213;46.452;16.994;2023-06-26T04:16:51;99850.00;;;15.43;95.05
75629;BME280;64213;46.452;16.994;2023-06-26T04:19:54;99846.81;;;15.49;94.99
75629;BME280;64213;46.452;16.994;2023-06-26T04:22:56;99850.91;;;15.63;94.28
75629;BME280;64213;46.452;16.994;2023-06-26T04:25:58;99850.44;;;15.79;93.90
75629;BME280;64213;46.452;16.994;2023-06-26T04:29:01;99851.44;;;15.88;93.49
75629;BME280;64213;46.452;16.994;2023-06-26T04:32:03;99845.12;;;15.98;92.93
75629;BME280;64213;46.452;16.994;2023-06-26T04:35:06;99848.69;;;16.09;92.50
75629;BME280;64213;46.452;16.994;2023-06-26T04:38:08;99833.53;;;16.09;92.19
75629;BME280;64213;46.452;16.994;2023-06-26T04:41:11;99844.59;;;16.24;91.77
75629;BME280;64213;46.452;16.994;2023-06-26T04:44:13;99849.28;;;16.41;91.21
75629;BME280;64213;46.452;16.994;2023-06-26T04:47:15;99842.25;;;16.50;90.85
75629;BME280;64213;46.452;16.994;2023-06-26T04:50:18;99846.03;;;16.57;90.34
75629;BME280;64213;46.452;16.994;2023-06-26T04:53:22;99838.84;;;16.67;90.00
75629;BME280;64213;46.452;16.994;2023-06-26T04:56:24;99847.41;;;16.71;89.57
75629;BME280;64213;46.452;16.994;2023-06-26T04:59:27;99850.56;;;16.76;89.29
75629;BME280;64213;46.452;16.994;2023-06-26T05:02:29;99856.72;;;16.86;89.00
75629;BME280;64213;46.452;16.994;2023-06-26T05:05:31;99852.91;;;16.99;88.47
75629;BME280;64213;46.452;16.994;2023-06-26T05:08:33;99847.09;;;17.13;87.87
75629;BME280;64213;46.452;16.994;2023-06-26T05:11:36;99852.97;;;17.26;87.35
75629;BME280;64213;46.452;16.994;2023-06-26T05:14:38;99849.53;;;17.43;86.83
75629;BME280;64213;46.452;16.994;2023-06-26T05:17:40;99848.09;;;17.49;86.37
75629;BME280;64213;46.452;16.994;2023-06-26T05:20:43;99845.22;;;17.60;85.80
75629;BME280;64213;46.452;16.994;2023-06-26T05:23:46;99842.34;;;17.72;85.58
75629;BME280;64213;46.452;16.994;2023-06-26T05:26:49;99848.13;;;17.77;85.14
75629;BME280;64213;46.452;16.994;2023-06-26T05:29:52;99843.56;;;17.87;84.95
75629;BME280;64213;46.452;16.994;2023-06-26T05:32:54;99841.13;;;17.94;84.64
75629;BME280;64213;46.452;16.994;2023-06-26T05:35:59;99853.38;;;18.14;84.18
75629;BME280;64213;46.452;16.994;2023-06-26T05:39:02;99851.03;;;18.29;83.11
75629;BME280;64213;46.452;16.994;2023-06-26T05:42:05;99852.56;;;18.49;82.06
75629;BME280;64213;46.452;16.994;2023-06-26T05:45:08;99852.16;;;18.62;81.97
75629;BME280;64213;46.452;16.994;2023-06-26T05:48:11;99858.00;;;18.75;80.91
75629;BME280;64213;46.452;16.994;2023-06-26T05:51:13;99858.66;;;18.95;80.38
75629;BME280;64213;46.452;16.994;2023-06-26T05:54:16;99857.91;;;19.11;79.17
75629;BME280;64213;46.452;16.994;2023-06-26T05:57:18;99863.72;;;19.24;79.21
75629;BME280;64213;46.452;16.994;2023-06-26T06:00:21;99856.72;;;19.40;78.40
75629;BME280;64213;46.452;16.994;2023-06-26T06:03:23;99856.63;;;19.49;77.74
75629;BME280;64213;46.452;16.994;2023-06-26T06:06:26;99852.81;;;19.60;77.46
75629;BME280;64213;46.452;16.994;2023-06-26T06:09:28;99858.97;;;19.79;76.83
75629;BME280;64213;46.452;16.994;2023-06-26T06:12:31;99847.59;;;19.93;76.49
75629;BME280;64213;46.452;16.994;2023-06-26T06:15:33;99852.53;;;20.14;75.17
75629;BME280;64213;46.452;16.994;2023-06-26T06:18:35;99849.03;;;20.38;75.23
75629;BME280;64213;46.452;16.994;2023-06-26T06:21:37;99842.38;;;20.58;73.08
75629;BME280;64213;46.452;16.994;2023-06-26T06:24:39;99854.47;;;20.79;72.45
75629;BME280;64213;46.452;16.994;2023-06-26T06:27:42;99841.50;;;21.07;70.29
75629;BME280;64213;46.452;16.994;2023-06-26T06:30:45;99842.88;;;21.67;69.40
75629;BME280;64213;46.452;16.994;2023-06-26T06:33:49;99846.78;;;22.49;64.96
75629;BME280;64213;46.452;16.994;2023-06-26T06:36:52;99845.66;;;23.05;63.03
75629;BME280;64213;46.452;16.994;2023-06-26T06:39:54;99849.84;;;23.81;61.63
75629;BME280;64213;46.452;16.994;2023-06-26T06:42:56;99847.72;;;24.49;59.47
75629;BME280;64213;46.452;16.994;2023-06-26T06:45:58;99854.72;;;24.44;59.24
75629;BME280;64213;46.452;16.994;2023-06-26T06:49:01;99853.69;;;24.66;57.53
75629;BME280;64213;46.452;16.994;2023-06-26T06:52:04;99852.88;;;25.15;56.59
75629;BME280;64213;46.452;16.994;2023-06-26T06:55:07;99853.56;;;25.65;55.61
75629;BME280;64213;46.452;16.994;2023-06-26T06:58:11;99856.31;;;26.13;54.56
75629;BME280;64213;46.452;16.994;2023-06-26T07:01:13;99855.25;;;26.01;54.33
75629;BME280;64213;46.452;16.994;2023-06-26T07:04:15;99856.78;;;26.43;53.64
75629;BME280;64213;46.452;16.994;2023-06-26T07:07:18;99855.19;;;26.62;51.10
75629;BME280;64213;46.452;16.994;2023-06-26T07:10:21;99857.25;;;26.60;51.50
75629;BME280;64213;46.452;16.994;2023-06-26T07:13:23;99854.97;;;27.10;49.99
75629;BME280;64213;46.452;16.994;2023-06-26T07:16:25;99857.28;;;27.13;49.25
75629;BME280;64213;46.452;16.994;2023-06-26T07:19:28;99862.66;;;27.47;47.04
75629;BME280;64213;46.452;16.994;2023-06-26T07:22:30;99855.28;;;27.74;48.34
75629;BME280;64213;46.452;16.994;2023-06-26T07:25:32;99859.09;;;28.18;46.65
75629;BME280;64213;46.452;16.994;2023-06-26T07:28:34;99867.50;;;28.48;46.10
75629;BME280;64213;46.452;16.994;2023-06-26T07:31:36;99858.25;;;28.11;46.26
75629;BME280;64213;46.452;16.994;2023-06-26T07:34:39;99862.94;;;28.35;45.93
75629;BME280;64213;46.452;16.994;2023-06-26T07:37:42;99861.84;;;28.49;45.40
75629;BME280;64213;46.452;16.994;2023-06-26T07:40:44;99856.44;;;28.36;45.99
75629;BME280;64213;46.452;16.994;2023-06-26T07:43:46;99858.66;;;28.52;44.59
75629;BME280;64213;46.452;16.994;2023-06-26T07:46:48;99855.59;;;28.74;44.79
75629;BME280;64213;46.452;16.994;2023-06-26T07:49:50;99863.63;;;28.87;44.21
75629;BME280;64213;46.452;16.994;2023-06-26T07:52:53;99867.31;;;29.00;43.83
75629;BME280;64213;46.452;16.994;2023-06-26T07:55:55;99856.19;;;28.76;43.43
75629;BME280;64213;46.452;16.994;2023-06-26T07:58:57;99861.50;;;29.21;42.18
75629;BME280;64213;46.452;16.994;2023-06-26T08:01:59;99870.16;;;29.36;41.02
75629;BME280;64213;46.452;16.994;2023-06-26T08:05:02;99866.63;;;29.91;40.27
75629;BME280;64213;46.452;16.994;2023-06-26T08:08:05;99859.38;;;29.41;40.72
75629;BME280;64213;46.452;16.994;2023-06-26T08:11:08;99854.09;;;30.02;39.91
75629;BME280;64213;46.452;16.994;2023-06-26T08:14:10;99856.91;;;29.40;38.70
75629;BME280;64213;46.452;16.994;2023-06-26T08:17:16;99861.81;;;29.31;39.47
75629;BME280;64213;46.452;16.994;2023-06-26T08:20:18;99856.59;;;30.22;38.48
75629;BME280;64213;46.452;16.994;2023-06-26T08:23:21;99861.94;;;30.28;38.28
75629;BME280;64213;46.452;16.994;2023-06-26T08:26:27;99857.91;;;30.31;37.74
75629;BME280;64213;46.452;16.994;2023-06-26T08:29:30;99864.69;;;30.40;37.47
75629;BME280;64213;46.452;16.994;2023-06-26T08:32:32;99862.34;;;30.44;37.34
75629;BME280;64213;46.452;16.994;2023-06-26T08:35:34;99868.28;;;30.94;36.67
75629;BME280;64213;46.452;16.994;2023-06-26T08:38:36;99867.25;;;31.42;35.85
75629;BME280;64213;46.452;16.994;2023-06-26T08:41:38;99869.84;;;31.25;35.69
75629;BME280;64213;46.452;16.994;2023-06-26T08:44:41;99870.19;;;31.29;35.55
75629;BME280;64213;46.452;16.994;2023-06-26T08:48:00;99865.94;;;31.21;35.46
75629;BME280;64213;46.452;16.994;2023-06-26T08:51:09;99863.91;;;31.52;35.36
75629;BME280;64213;46.452;16.994;2023-06-26T08:54:15;99857.63;;;31.28;34.83
75629;BME280;64213;46.452;16.994;2023-06-26T08:57:20;99858.50;;;31.92;34.07
75629;BME280;64213;46.452;16.994;2023-06-26T09:00:24;99857.72;;;31.57;34.87
75629;BME280;64213;46.452;16.994;2023-06-26T09:03:27;99856.47;;;31.88;34.69
75629;BME280;64213;46.452;16.994;2023-06-26T09:06:29;99851.28;;;32.15;33.91
75629;BME280;64213;46.452;16.994;2023-06-26T09:09:31;99850.22;;;31.64;34.65
75629;BME280;64213;46.452;16.994;2023-06-26T09:12:34;99850.38;;;30.98;35.88
75629;BME280;64213;46.452;16.994;2023-06-26T09:15:46;99850.56;;;31.56;35.29
75629;BME280;64213;46.452;16.994;2023-06-26T09:18:51;99852.03;;;32.10;33.55
75629;BME280;64213;46.452;16.994;2023-06-26T09:21:54;99847.66;;;32.26;32.04
75629;BME280;64213;46.452;16.994;2023-06-26T09:24:56;99845.75;;;32.27;32.01
75629;BME280;64213;46.452;16.994;2023-06-26T09:27:59;99846.91;;;32.93;32.08
75629;BME280;64213;46.452;16.994;2023-06-26T09:31:05;99842.59;;;32.80;32.22
75629;BME280;64213;46.452;16.994;2023-06-26T09:34:10;99848.25;;;33.07;31.42
75629;BME280;64213;46.452;16.994;2023-06-26T09:37:12;99846.56;;;33.84;30.17
75629;BME280;64213;46.452;16.994;2023-06-26T09:40:15;99842.03;;;33.95;29.49
75629;BME280;64213;46.452;16.994;2023-06-26T09:43:18;99845.09;;;33.16;29.53
75629;BME280;64213;46.452;16.994;2023-06-26T09:46:28;99837.84;;;34.09;29.12
75629;BME280;64213;46.452;16.994;2023-06-26T09:49:31;99834.47;;;33.80;29.83
75629;BME280;64213;46.452;16.994;2023-06-26T09:52:35;99832.03;;;34.06;29.60
75629;BME280;64213;46.452;16.994;2023-06-26T09:55:37;99829.38;;;33.67;29.82
75629;BME280;64213;46.452;16.994;2023-06-26T09:58:40;99829.91;;;33.91;29.87
75629;BME280;64213;46.452;16.994;2023-06-26T10:01:45;99826.22;;;33.58;28.62
75629;BME280;64213;46.452;16.994;2023-06-26T10:04:49;99823.63;;;34.44;28.58
75629;BME280;64213;46.452;16.994;2023-06-26T10:07:52;99827.06;;;33.80;29.16
75629;BME280;64213;46.452;16.994;2023-06-26T10:10:56;99820.28;;;34.42;29.13
75629;BME280;64213;46.452;16.994;2023-06-26T10:14:01;99822.50;;;34.13;29.85
75629;BME280;64213;46.452;16.994;2023-06-26T10:17:19;99831.88;;;35.09;28.56
75629;BME280;64213;46.452;16.994;2023-06-26T10:20:24;99819.50;;;34.74;29.06
75629;BME280;64213;46.452;16.994;2023-06-26T10:23:28;99823.06;;;32.77;30.95
75629;BME280;64213;46.452;16.994;2023-06-26T10:26:44;99834.31;;;33.09;30.76
75629;BME280;64213;46.452;16.994;2023-06-26T10:29:56;99820.38;;;33.32;29.47
75629;BME280;64213;46.452;16.994;2023-06-26T10:32:59;99820.28;;;33.27;30.36
75629;BME280;64213;46.452;16.994;2023-06-26T10:36:29;99814.91;;;30.68;32.98
75629;BME280;64213;46.452;16.994;2023-06-26T10:39:52;99804.09;;;30.62;33.59
75629;BME280;64213;46.452;16.994;2023-06-26T10:43:08;99803.53;;;30.71;33.72
75629;BME280;64213;46.452;16.994;2023-06-26T10:46:11;99809.56;;;30.62;34.17
75629;BME280;64213;46.452;16.994;2023-06-26T10:49:13;99809.50;;;31.39;33.20
75629;BME280;64213;46.452;16.994;2023-06-26T10:52:26;99802.59;;;32.62;30.78
75629;BME280;64213;46.452;16.994;2023-06-26T10:55:28;99805.25;;;32.74;30.70
75629;BME280;64213;46.452;16.994;2023-06-26T11:01:42;99806.22;;;33.02;29.31
75629;BME280;64213;46.452;16.994;2023-06-26T11:04:46;99797.41;;;32.83;29.24
75629;BME280;64213;46.452;16.994;2023-06-26T11:08:21;99785.72;;;34.14;28.12
75629;BME280;64213;46.452;16.994;2023-06-26T11:14:55;99791.75;;;34.11;27.78
75629;BME280;64213;46.452;16.994;2023-06-26T11:17:57;99794.94;;;33.81;28.73
75629;BME280;64213;46.452;16.994;2023-06-26T11:21:10;99784.06;;;34.13;28.50
75629;BME280;64213;46.452;16.994;2023-06-26T11:24:15;99788.37;;;34.68;28.43
75629;BME280;64213;46.452;16.994;2023-06-26T11:27:18;99785.63;;;33.82;29.58
75629;BME280;64213;46.452;16.994;2023-06-26T11:30:24;99786.44;;;34.05;29.12
75629;BME280;64213;46.452;16.994;2023-06-26T11:33:27;99775.78;;;33.20;30.59
75629;BME280;64213;46.452;16.994;2023-06-26T11:36:30;99779.63;;;33.63;29.86
75629;BME280;64213;46.452;16.994;2023-06-26T11:39:32;99786.28;;;35.18;28.07
75629;BME280;64213;46.452;16.994;2023-06-26T11:42:35;99782.25;;;34.93;28.56
75629;BME280;64213;46.452;16.994;2023-06-26T11:45:37;99770.53;;;34.34;28.64
75629;BME280;64213;46.452;16.994;2023-06-26T11:48:39;99777.44;;;35.11;28.07
75629;BME280;64213;46.452;16.994;2023-06-26T11:51:42;99774.91;;;34.35;28.07
75629;BME280;64213;46.452;16.994;2023-06-26T11:54:44;99775.31;;;35.23;27.20
75629;BME280;64213;46.452;16.994;2023-06-26T11:57:53;99776.31;;;35.07;27.62
75629;BME280;64213;46.452;16.994;2023-06-26T12:00:56;99768.91;;;34.38;28.02
75629;BME280;64213;46.452;16.994;2023-06-26T12:04:00;99771.81;;;34.53;27.04
75629;BME280;64213;46.452;16.994;2023-06-26T12:07:06;99770.56;;;35.71;25.90
75629;BME280;64213;46.452;16.994;2023-06-26T12:10:11;99772.94;;;35.00;27.03
75629;BME280;64213;46.452;16.994;2023-06-26T12:13:15;99771.66;;;35.12;27.04
75629;BME280;64213;46.452;16.994;2023-06-26T12:16:18;99767.16;;;35.49;26.12
75629;BME280;64213;46.452;16.994;2023-06-26T12:19:25;99762.84;;;34.68;26.93
75629;BME280;64213;46.452;16.994;2023-06-26T12:22:34;99768.53;;;34.99;26.53
75629;BME280;64213;46.452;16.994;2023-06-26T12:25:37;99765.50;;;34.58;27.36
75629;BME280;64213;46.452;16.994;2023-06-26T12:28:39;99768.78;;;34.92;27.14
75629;BME280;64213;46.452;16.994;2023-06-26T12:31:44;99762.81;;;34.31;27.79
75629;BME280;64213;46.452;16.994;2023-06-26T12:34:50;99757.81;;;34.00;28.25
75629;BME280;64213;46.452;16.994;2023-06-26T12:37:53;99758.09;;;33.50;28.50
75629;BME280;64213;46.452;16.994;2023-06-26T12:40:56;99761.78;;;34.10;27.69
75629;BME280;64213;46.452;16.994;2023-06-26T12:43:58;99758.06;;;34.21;27.58
75629;BME280;64213;46.452;16.994;2023-06-26T12:47:01;99748.34;;;34.13;27.57
75629;BME280;64213;46.452;16.994;2023-06-26T12:50:07;99747.47;;;34.08;28.64
75629;BME280;64213;46.452;16.994;2023-06-26T12:53:10;99746.75;;;33.90;28.12
75629;BME280;64213;46.452;16.994;2023-06-26T12:56:14;99734.97;;;33.68;27.95
75629;BME280;64213;46.452;16.994;2023-06-26T12:59:18;99740.41;;;34.17;27.72
75629;BME280;64213;46.452;16.994;2023-06-26T13:02:20;99736.22;;;33.55;28.50
75629;BME280;64213;46.452;16.994;2023-06-26T13:05:22;99743.09;;;33.58;28.57
75629;BME280;64213;46.452;16.994;2023-06-26T13:08:25;99741.78;;;33.60;28.43
75629;BME280;64213;46.452;16.994;2023-06-26T13:11:27;99740.41;;;34.17;28.09
75629;BME280;64213;46.452;16.994;2023-06-26T13:14:30;99742.84;;;34.45;27.99
75629;BME280;64213;46.452;16.994;2023-06-26T13:17:32;99737.31;;;33.54;29.59
75629;BME280;64213;46.452;16.994;2023-06-26T13:20:34;99742.94;;;33.03;29.55
75629;BME280;64213;46.452;16.994;2023-06-26T13:23:37;99736.19;;;32.55;30.45
75629;BME280;64213;46.452;16.994;2023-06-26T13:26:39;99738.03;;;32.88;30.02
75629;BME280;64213;46.452;16.994;2023-06-26T13:29:41;99727.84;;;32.84;29.97
75629;BME280;64213;46.452;16.994;2023-06-26T13:32:44;99723.69;;;31.97;30.51
75629;BME280;64213;46.452;16.994;2023-06-26T13:35:46;99717.97;;;31.99;30.19
75629;BME280;64213;46.452;16.994;2023-06-26T13:38:48;99714.22;;;31.59;31.55
75629;BME280;64213;46.452;16.994;2023-06-26T13:41:57;99715.75;;;32.29;30.91
75629;BME280;64213;46.452;16.994;2023-06-26T13:45:00;99709.09;;;32.76;30.26
75629;BME280;64213;46.452;16.994;2023-06-26T13:48:10;99712.88;;;32.53;30.65
75629;BME280;64213;46.452;16.994;2023-06-26T13:51:13;99710.03;;;32.64;29.99
75629;BME280;64213;46.452;16.994;2023-06-26T13:54:15;99706.94;;;32.61;29.93
75629;BME280;64213;46.452;16.994;2023-06-26T13:57:17;99703.47;;;32.65;29.74
75629;BME280;64213;46.452;16.994;2023-06-26T14:00:21;99693.75;;;32.75;29.78
75629;BME280;64213;46.452;16.994;2023-06-26T14:03:24;99700.44;;;33.23;29.46
75629;BME280;64213;46.452;16.994;2023-06-26T14:06:26;99693.09;;;33.06;29.84
75629;BME280;64213;46.452;16.994;2023-06-26T14:09:28;99702.25;;;32.56;29.81
75629;BME280;64213;46.452;16.994;2023-06-26T14:12:31;99703.13;;;31.94;31.86
75629;BME280;64213;46.452;16.994;2023-06-26T14:15:34;99692.34;;;31.07;32.20
75629;BME280;64213;46.452;16.994;2023-06-26T14:18:37;99693.72;;;31.62;31.80
75629;BME280;64213;46.452;16.994;2023-06-26T14:21:40;99692.66;;;31.22;32.19
75629;BME280;64213;46.452;16.994;2023-06-26T14:24:42;99689.56;;;32.16;32.51
75629;BME280;64213;46.452;16.994;2023-06-26T14:27:45;99697.16;;;32.48;32.21
75629;BME280;64213;46.452;16.994;2023-06-26T14:30:47;99686.03;;;32.72;32.39
75629;BME280;64213;46.452;16.994;2023-06-26T14:33:49;99685.84;;;31.94;32.88
75629;BME280;64213;46.452;16.994;2023-06-26T14:36:51;99684.41;;;31.46;33.65
75629;BME280;64213;46.452;16.994;2023-06-26T14:39:53;99690.72;;;31.46;33.86
75629;BME280;64213;46.452;16.994;2023-06-26T14:42:56;99685.38;;;30.52;35.31
75629;BME280;64213;46.452;16.994;2023-06-26T14:45:59;99688.00;;;30.35;35.23
75629;BME280;64213;46.452;16.994;2023-06-26T14:49:02;99672.81;;;30.51;35.19
75629;BME280;64213;46.452;16.994;2023-06-26T14:52:05;99667.47;;;30.45;34.92
75629;BME280;64213;46.452;16.994;2023-06-26T14:55:07;99661.94;;;31.15;34.17
75629;BME280;64213;46.452;16.994;2023-06-26T14:58:10;99669.59;;;30.90;34.30
75629;BME280;64213;46.452;16.994;2023-06-26T15:01:13;99675.44;;;31.34;33.84
75629;BME280;64213;46.452;16.994;2023-06-26T15:04:17;99670.59;;;31.24;33.81
75629;BME280;64213;46.452;16.994;2023-06-26T15:07:20;99672.91;;;31.32;33.69
75629;BME280;64213;46.452;16.994;2023-06-26T15:10:22;99664.69;;;31.03;33.95
75629;BME280;64213;46.452;16.994;2023-06-26T15:13:28;99665.09;;;30.84;33.80
75629;BME280;64213;46.452;16.994;2023-06-26T15:16:30;99654.19;;;30.60;34.16
75629;BME280;64213;46.452;16.994;2023-06-26T15:19:33;99660.84;;;31.16;34.44
75629;BME280;64213;46.452;16.994;2023-06-26T15:22:35;99656.50;;;31.44;33.50
75629;BME280;64213;46.452;16.994;2023-06-26T15:25:38;99650.87;;;32.13;32.85
75629;BME280;64213;46.452;16.994;2023-06-26T15:28:40;99658.16;;;31.90;32.28
75629;BME280;64213;46.452;16.994;2023-06-26T15:31:42;99651.47;;;31.53;33.19
75629;BME280;64213;46.452;16.994;2023-06-26T15:34:45;99646.88;;;31.30;33.46
75629;BME280;64213;46.452;16.994;2023-06-26T15:37:48;99646.44;;;30.80;34.12
75629;BME280;64213;46.452;16.994;2023-06-26T15:40:53;99638.81;;;30.94;34.20
75629;BME280;64213;46.452;16.994;2023-06-26T15:43:56;99641.31;;;31.36;33.62
75629;BME280;64213;46.452;16.994;2023-06-26T15:46:59;99633.06;;;31.08;34.08
75629;BME280;64213;46.452;16.994;2023-06-26T15:50:01;99628.25;;;30.74;34.03
75629;BME280;64213;46.452;16.994;2023-06-26T15:53:04;99634.59;;;30.28;35.29
75629;BME280;64213;46.452;16.994;2023-06-26T15:56:08;99638.62;;;30.49;34.81
75629;BME280;64213;46.452;16.994;2023-06-26T15:59:10;99634.38;;;30.41;34.38
75629;BME280;64213;46.452;16.994;2023-06-26T16:02:12;99631.47;;;30.59;33.63
75629;BME280;64213;46.452;16.994;2023-06-26T16:05:15;99625.69;;;30.79;33.84
75629;BME280;64213;46.452;16.994;2023-06-26T16:08:17;99622.38;;;30.30;35.01
75629;BME280;64213;46.452;16.994;2023-06-26T16:11:19;99623.22;;;30.19;34.53
75629;BME280;64213;46.452;16.994;2023-06-26T16:14:21;99621.25;;;30.08;34.83